Terminal Aerodrome Forecast
Issued by NWS

Home | Current Version | Previous Version | Text Only | Print | Product List | Glossary On
Versions: 1 2 3 4 5 6 7 8 9 10 11 12 13 14
000
FTUS41 KPBZ 310500
TAFZZV
TAF
KZZV 310526Z 3106/0106 23003KT P6SM VCSH OVC100
     FM310700 21005KT 5SM -SHRA OVC030
     FM311000 21008KT 3SM SHRA BR OVC009
     FM311500 20008KT 3SM SHRA OVC015
     FM311900 20008KT 5SM -SHRA VCTS OVC020CB
     FM312200 19005KT 6SM -SHRA BR OVC020=

USA.gov is the U.S. government's official web portal to all federal, state and local government web resources and services.